createdAt,value
2023-07-24T00:00:09.400Z,100.00
2023-07-24T00:02:37.566Z,100.00
2023-07-24T00:05:06.508Z,100.00
2023-07-24T00:07:34.840Z,100.00
2023-07-24T00:10:03.212Z,100.00
2023-07-24T00:12:31.217Z,100.00
2023-07-24T00:14:59.416Z,100.00
2023-07-24T00:17:29.383Z,100.00
2023-07-24T00:19:58.193Z,100.00
2023-07-24T00:22:26.252Z,100.00
2023-07-24T00:24:54.420Z,100.00
2023-07-24T00:27:22.573Z,100.00
2023-07-24T00:29:51.759Z,100.00
2023-07-24T00:32:20.052Z,100.00
2023-07-24T00:34:49.647Z,100.00
2023-07-24T00:37:18.307Z,100.00
2023-07-24T00:39:46.704Z,100.00
2023-07-24T00:42:16.255Z,100.00
2023-07-24T00:44:44.265Z,100.00
2023-07-24T00:47:12.855Z,100.00
2023-07-24T00:49:41.437Z,100.00
2023-07-24T00:52:11.571Z,100.00
2023-07-24T00:54:40.643Z,100.00
2023-07-24T00:57:09.151Z,100.00
2023-07-24T00:59:38.252Z,100.00
2023-07-24T01:02:07.141Z,100.00
2023-07-24T01:04:35.726Z,100.00
2023-07-24T01:07:07.010Z,100.00
2023-07-24T01:09:36.579Z,100.00
2023-07-24T01:12:12.772Z,100.00
2023-07-24T01:14:48.380Z,100.00
2023-07-24T01:17:18.885Z,100.00
2023-07-24T01:19:51.166Z,100.00
2023-07-24T01:22:31.073Z,100.00
2023-07-24T01:25:11.977Z,100.00
2023-07-24T01:27:44.995Z,100.00
2023-07-24T01:30:13.989Z,100.00
2023-07-24T01:32:42.518Z,100.00
2023-07-24T01:35:10.918Z,100.00
2023-07-24T01:37:41.677Z,100.00
2023-07-24T01:40:12.150Z,100.00
2023-07-24T01:42:42.723Z,100.00
2023-07-24T01:45:13.545Z,100.00
2023-07-24T01:47:41.792Z,100.00
2023-07-24T01:50:10.926Z,100.00
2023-07-24T01:52:39.082Z,100.00
2023-07-24T01:55:10.368Z,100.00
2023-07-24T01:57:38.612Z,100.00
2023-07-24T02:00:08.342Z,100.00
2023-07-24T02:02:37.977Z,100.00
2023-07-24T02:05:06.603Z,100.00
2023-07-24T02:07:34.733Z,100.00
2023-07-24T02:10:02.993Z,100.00
2023-07-24T02:12:32.326Z,100.00
2023-07-24T02:15:01.001Z,100.00
2023-07-24T02:17:29.334Z,100.00
2023-07-24T02:19:59.144Z,100.00
2023-07-24T02:22:27.405Z,100.00
2023-07-24T02:24:55.549Z,100.00
2023-07-24T02:27:32.447Z,100.00
2023-07-24T02:30:01.437Z,100.00
2023-07-24T02:32:34.458Z,100.00
2023-07-24T02:35:04.057Z,100.00
2023-07-24T02:37:32.290Z,100.00
2023-07-24T02:40:00.702Z,100.00
2023-07-24T02:42:28.877Z,100.00
2023-07-24T02:44:57.202Z,100.00
2023-07-24T02:47:25.309Z,100.00
2023-07-24T02:49:54.673Z,100.00
2023-07-24T02:52:25.324Z,100.00
2023-07-24T02:54:53.332Z,100.00
2023-07-24T02:57:21.770Z,100.00
2023-07-24T02:59:49.825Z,100.00
2023-07-24T03:02:18.280Z,100.00
2023-07-24T03:04:46.518Z,100.00
2023-07-24T03:07:14.819Z,100.00
2023-07-24T03:09:44.321Z,100.00
2023-07-24T03:12:12.699Z,100.00
2023-07-24T03:14:40.746Z,100.00
2023-07-24T03:17:09.017Z,100.00
2023-07-24T03:19:37.354Z,100.00
2023-07-24T03:22:05.928Z,100.00
2023-07-24T03:24:32.941Z,100.00
2023-07-24T03:27:03.413Z,100.00
2023-07-24T03:29:31.611Z,100.00
2023-07-24T03:31:59.724Z,100.00
2023-07-24T03:34:28.202Z,100.00
2023-07-24T03:36:56.265Z,100.00
2023-07-24T03:39:24.415Z,100.00
2023-07-24T03:41:52.825Z,100.00
2023-07-24T03:44:22.340Z,100.00
2023-07-24T03:46:50.376Z,100.00
2023-07-24T03:49:19.139Z,100.00
2023-07-24T03:51:48.625Z,100.00
2023-07-24T03:54:17.019Z,100.00
2023-07-24T03:56:45.351Z,100.00
2023-07-24T03:59:14.963Z,100.00
2023-07-24T04:01:44.599Z,100.00
2023-07-24T04:04:12.841Z,100.00
2023-07-24T04:06:41.192Z,100.00
2023-07-24T04:09:09.830Z,100.00
2023-07-24T04:11:39.531Z,100.00
2023-07-24T04:14:07.866Z,100.00
2023-07-24T04:16:36.340Z,100.00
2023-07-24T04:19:08.265Z,100.00
2023-07-24T04:21:37.334Z,100.00
2023-07-24T04:24:06.414Z,100.00
2023-07-24T04:26:37.054Z,100.00
2023-07-24T04:29:09.431Z,100.00
2023-07-24T04:31:37.467Z,100.00
2023-07-24T04:34:05.904Z,100.00
2023-07-24T04:36:38.758Z,100.00
2023-07-24T04:39:07.227Z,100.00
2023-07-24T04:41:35.790Z,100.00
2023-07-24T04:44:04.238Z,100.00
2023-07-24T04:46:32.777Z,100.00
2023-07-24T04:49:01.274Z,100.00
2023-07-24T04:51:30.271Z,100.00
2023-07-24T04:53:59.978Z,100.00
2023-07-24T04:56:29.398Z,100.00
2023-07-24T04:59:00.651Z,100.00
2023-07-24T05:01:29.456Z,100.00
2023-07-24T05:03:57.834Z,100.00
2023-07-24T05:06:27.005Z,100.00
2023-07-24T05:08:55.487Z,100.00
2023-07-24T05:11:25.277Z,100.00
2023-07-24T05:13:53.893Z,100.00
2023-07-24T05:16:22.469Z,100.00
2023-07-24T05:18:51.131Z,100.00
2023-07-24T05:21:19.404Z,100.00
2023-07-24T05:23:47.922Z,100.00
2023-07-24T05:26:16.533Z,100.00
2023-07-24T05:28:47.056Z,97.16
2023-07-24T05:31:15.771Z,94.43
2023-07-24T05:33:43.759Z,88.20
2023-07-24T05:36:11.871Z,88.07
2023-07-24T05:38:40.135Z,87.49
2023-07-24T05:41:08.648Z,85.07
2023-07-24T05:43:36.938Z,82.75
2023-07-24T05:46:09.241Z,82.88
2023-07-24T05:48:37.735Z,83.60
2023-07-24T05:51:07.021Z,80.06
2023-07-24T05:53:35.271Z,76.83
2023-07-24T05:56:04.537Z,76.80
2023-07-24T05:58:36.599Z,77.43
2023-07-24T06:01:06.306Z,72.44
2023-07-24T06:03:34.979Z,74.00
2023-07-24T06:06:03.398Z,76.11
2023-07-24T06:08:31.441Z,75.39
2023-07-24T06:10:59.683Z,74.34
2023-07-24T06:13:28.047Z,74.06
2023-07-24T06:15:56.264Z,69.43
2023-07-24T06:18:27.116Z,68.30
2023-07-24T06:20:56.038Z,70.39
2023-07-24T06:23:26.414Z,70.64
2023-07-24T06:25:55.100Z,73.33
2023-07-24T06:28:23.530Z,70.30
2023-07-24T06:30:55.200Z,67.15
2023-07-24T06:33:25.143Z,65.99
2023-07-24T06:35:53.463Z,65.22
2023-07-24T06:38:23.603Z,64.70
2023-07-24T06:40:52.638Z,62.42
2023-07-24T06:43:20.710Z,59.45
2023-07-24T06:45:48.750Z,60.15
2023-07-24T06:48:17.300Z,60.79
2023-07-24T06:50:47.128Z,61.47
2023-07-24T06:53:15.896Z,59.35
2023-07-24T06:55:44.916Z,58.60
2023-07-24T06:58:13.491Z,59.45
2023-07-24T07:00:41.721Z,56.53
2023-07-24T07:03:10.478Z,55.17
2023-07-24T07:05:38.610Z,54.08
2023-07-24T07:08:08.028Z,54.09
2023-07-24T07:10:36.526Z,56.13
2023-07-24T07:13:05.190Z,55.23
2023-07-24T07:15:33.519Z,54.20
2023-07-24T07:18:02.002Z,51.96
2023-07-24T07:20:30.578Z,52.06
2023-07-24T07:22:58.801Z,52.29
2023-07-24T07:25:28.391Z,53.34
2023-07-24T07:27:56.731Z,53.19
2023-07-24T07:30:25.221Z,51.39
2023-07-24T07:32:56.364Z,49.69
2023-07-24T07:35:26.003Z,49.93
2023-07-24T07:37:54.884Z,48.56
2023-07-24T07:40:24.663Z,50.13
2023-07-24T07:42:54.338Z,52.32
2023-07-24T07:45:23.098Z,51.92
2023-07-24T07:47:51.535Z,49.48
2023-07-24T07:50:20.622Z,48.16
2023-07-24T07:52:52.301Z,48.44
2023-07-24T07:55:21.255Z,48.02
2023-07-24T07:57:50.372Z,48.82
2023-07-24T08:00:21.082Z,49.30
2023-07-24T08:02:49.500Z,49.47
2023-07-24T08:05:21.299Z,47.98
2023-07-24T08:07:49.993Z,47.49
2023-07-24T08:10:18.319Z,45.62
2023-07-24T08:12:47.012Z,43.56
2023-07-24T08:15:15.635Z,41.94
2023-07-24T08:17:45.411Z,42.85
2023-07-24T08:20:15.264Z,41.14
2023-07-24T08:22:43.765Z,41.13
2023-07-24T08:25:11.912Z,42.86
2023-07-24T08:27:54.391Z,43.91
2023-07-24T08:30:28.548Z,45.18
2023-07-24T08:32:59.062Z,46.02
2023-07-24T08:35:28.085Z,46.42
2023-07-24T08:37:56.747Z,46.74
2023-07-24T08:40:24.859Z,46.67
2023-07-24T08:42:55.020Z,47.61
2023-07-24T08:45:26.078Z,46.35
2023-07-24T08:47:54.803Z,45.36
2023-07-24T08:50:26.290Z,45.55
2023-07-24T08:52:54.999Z,46.48
2023-07-24T08:55:24.567Z,45.92
2023-07-24T08:57:52.786Z,45.99
2023-07-24T09:00:21.383Z,45.24
2023-07-24T09:02:49.507Z,44.72
2023-07-24T09:05:18.810Z,45.41
2023-07-24T09:07:50.255Z,44.10
2023-07-24T09:10:18.984Z,45.21
2023-07-24T09:12:47.557Z,43.30
2023-07-24T09:15:17.105Z,42.78
2023-07-24T09:17:54.079Z,43.02
2023-07-24T09:23:14.259Z,43.39
2023-07-24T09:25:46.701Z,42.70
2023-07-24T09:28:17.226Z,42.37
2023-07-24T09:30:56.064Z,41.86
2023-07-24T09:33:25.775Z,40.00
2023-07-24T09:36:00.942Z,39.44
2023-07-24T09:38:34.426Z,39.01
2023-07-24T09:41:03.825Z,39.24
2023-07-24T09:46:06.572Z,39.06
2023-07-24T09:51:08.627Z,39.21
2023-07-24T09:53:45.794Z,39.91
2023-07-24T09:56:14.320Z,39.51
2023-07-24T09:58:43.313Z,39.14
2023-07-24T10:01:12.741Z,39.80
2023-07-24T10:03:43.907Z,39.05
2023-07-24T10:06:13.737Z,39.54
2023-07-24T10:08:46.513Z,39.06
2023-07-24T10:11:16.923Z,38.85
2023-07-24T10:13:45.938Z,39.33
2023-07-24T10:16:15.385Z,38.61
2023-07-24T10:18:49.105Z,39.59
2023-07-24T10:21:17.610Z,38.99
2023-07-24T10:23:49.296Z,38.01
2023-07-24T10:26:18.372Z,38.45
2023-07-24T10:28:51.212Z,37.94
2023-07-24T10:31:25.563Z,38.38
2023-07-24T10:33:54.933Z,37.48
2023-07-24T10:36:25.941Z,39.35
2023-07-24T10:38:58.140Z,39.17
2023-07-24T10:41:37.876Z,38.28
2023-07-24T10:44:07.356Z,38.66
2023-07-24T10:46:39.401Z,38.54
2023-07-24T10:49:10.228Z,37.93
2023-07-24T10:51:40.091Z,38.12
2023-07-24T10:54:10.403Z,38.21
2023-07-24T10:56:40.027Z,39.55
2023-07-24T10:59:08.494Z,39.62
2023-07-24T11:01:37.408Z,39.76
2023-07-24T11:04:07.353Z,39.68
2023-07-24T11:09:41.610Z,37.52
2023-07-24T11:12:14.823Z,35.91
2023-07-24T11:14:55.381Z,35.34
2023-07-24T11:17:36.316Z,36.06
2023-07-24T11:20:10.053Z,37.69
2023-07-24T11:22:39.801Z,38.04
2023-07-24T11:25:10.572Z,39.46
2023-07-24T11:27:45.264Z,39.12
2023-07-24T11:30:14.971Z,37.81
2023-07-24T11:32:44.871Z,39.16
2023-07-24T11:35:14.931Z,40.16
2023-07-24T11:37:43.365Z,41.11
2023-07-24T11:40:16.367Z,41.60
2023-07-24T11:42:46.693Z,41.73
2023-07-24T11:45:15.483Z,41.40
2023-07-24T11:47:46.981Z,40.84
2023-07-24T11:50:16.023Z,38.19
2023-07-24T11:52:47.155Z,36.35
2023-07-24T11:55:19.168Z,35.06
2023-07-24T11:57:58.865Z,34.98
2023-07-24T12:00:27.893Z,34.67
2023-07-24T12:03:01.823Z,34.33
2023-07-24T12:05:31.929Z,34.90
2023-07-24T12:08:04.551Z,34.54
2023-07-24T12:10:40.506Z,33.96
2023-07-24T12:13:09.916Z,33.67
2023-07-24T12:15:40.197Z,33.47
2023-07-24T12:18:09.536Z,33.57
2023-07-24T12:20:38.218Z,34.50
2023-07-24T12:23:07.305Z,35.18
2023-07-24T12:25:38.233Z,35.91
2023-07-24T12:28:07.325Z,36.45
2023-07-24T12:30:35.634Z,35.63
2023-07-24T12:33:04.290Z,34.98
2023-07-24T12:35:33.483Z,34.02
2023-07-24T12:38:02.101Z,35.12
2023-07-24T12:40:30.449Z,35.36
2023-07-24T12:43:00.579Z,35.44
2023-07-24T12:45:30.222Z,34.47
2023-07-24T12:47:58.728Z,34.19
2023-07-24T12:50:27.258Z,34.11
2023-07-24T12:52:55.588Z,34.22
2023-07-24T12:55:24.620Z,34.49
2023-07-24T12:57:53.419Z,33.59
2023-07-24T13:00:23.514Z,33.47
2023-07-24T13:02:51.850Z,32.58
2023-07-24T13:05:20.336Z,32.99
2023-07-24T13:07:48.973Z,32.73
2023-07-24T13:10:17.285Z,34.00
2023-07-24T13:12:47.899Z,35.29
2023-07-24T13:15:17.684Z,35.66
2023-07-24T13:17:47.775Z,34.72
2023-07-24T13:20:16.699Z,34.66
2023-07-24T13:22:48.109Z,34.13
2023-07-24T13:25:16.763Z,33.07
2023-07-24T13:27:45.125Z,32.50
2023-07-24T13:30:14.401Z,31.14
2023-07-24T13:32:42.918Z,31.24
2023-07-24T13:35:13.160Z,31.24
2023-07-24T13:37:41.627Z,32.06
2023-07-24T13:40:11.592Z,32.88
2023-07-24T13:42:40.002Z,32.62
2023-07-24T13:45:09.912Z,31.12
2023-07-24T13:47:38.479Z,32.15
2023-07-24T13:50:09.271Z,31.69
2023-07-24T13:52:39.113Z,30.82
2023-07-24T13:55:08.620Z,30.15
2023-07-24T13:57:37.083Z,30.37
2023-07-24T14:00:06.139Z,29.24
2023-07-24T14:02:34.807Z,29.25
2023-07-24T14:05:03.511Z,28.65
2023-07-24T14:07:31.721Z,28.08
2023-07-24T14:10:01.152Z,28.13
2023-07-24T14:12:29.228Z,27.19
2023-07-24T14:14:57.470Z,26.51
2023-07-24T14:17:25.720Z,26.71
2023-07-24T14:19:53.927Z,26.58
2023-07-24T14:22:22.157Z,25.62
2023-07-24T14:24:50.493Z,25.02
2023-07-24T14:27:20.196Z,24.57
2023-07-24T14:29:48.605Z,25.24
2023-07-24T14:32:17.331Z,25.27
2023-07-24T14:34:46.038Z,25.04
2023-07-24T14:37:14.776Z,24.65
2023-07-24T14:39:43.267Z,24.41
2023-07-24T14:42:11.594Z,23.39
2023-07-24T14:44:41.234Z,22.96
2023-07-24T14:47:09.750Z,22.47
2023-07-24T14:49:38.143Z,22.70
2023-07-24T14:52:06.904Z,22.13
2023-07-24T14:54:38.608Z,23.17
2023-07-24T14:57:19.083Z,23.45
2023-07-24T14:59:54.799Z,23.76
2023-07-24T15:02:22.891Z,24.71
2023-07-24T15:04:51.505Z,25.27
2023-07-24T15:07:20.079Z,25.02
2023-07-24T15:09:48.550Z,24.80
2023-07-24T15:12:16.789Z,24.56
2023-07-24T15:14:45.072Z,25.04
2023-07-24T15:17:16.018Z,24.73
2023-07-24T15:19:44.184Z,23.81
2023-07-24T15:22:12.746Z,23.95
2023-07-24T15:24:42.276Z,24.36
2023-07-24T15:27:12.218Z,24.98
2023-07-24T15:29:40.788Z,24.50
2023-07-24T15:32:10.131Z,24.54
2023-07-24T15:34:40.287Z,24.63
2023-07-24T15:37:08.685Z,25.61
2023-07-24T15:39:36.998Z,25.82
2023-07-24T15:42:05.705Z,26.46
2023-07-24T15:44:34.085Z,27.39
2023-07-24T15:47:02.450Z,27.57
2023-07-24T15:49:31.854Z,27.84
2023-07-24T15:52:01.513Z,29.06
2023-07-24T15:54:29.913Z,28.28
2023-07-24T15:56:58.334Z,28.93
2023-07-24T15:59:26.671Z,28.23
2023-07-24T16:01:54.801Z,27.29
2023-07-24T16:04:23.502Z,27.51
2023-07-24T16:06:51.685Z,28.09
2023-07-24T16:09:23.086Z,27.77
2023-07-24T16:11:51.161Z,26.97
2023-07-24T16:14:19.581Z,27.38
2023-07-24T16:16:47.827Z,26.90
2023-07-24T16:19:17.443Z,27.46
2023-07-24T16:21:47.730Z,27.37
2023-07-24T16:24:18.419Z,27.56
2023-07-24T16:26:49.673Z,27.95
2023-07-24T16:29:18.332Z,27.80
2023-07-24T16:31:46.359Z,26.90
2023-07-24T16:34:15.457Z,27.60
2023-07-24T16:36:43.851Z,27.22
2023-07-24T16:39:12.246Z,26.72
2023-07-24T16:41:41.486Z,27.26
2023-07-24T16:44:15.321Z,27.66
2023-07-24T16:46:44.014Z,27.73
2023-07-24T16:49:12.431Z,27.52
2023-07-24T16:51:40.919Z,27.28
2023-07-24T16:54:10.421Z,27.72
2023-07-24T16:56:38.655Z,27.80
2023-07-24T16:59:06.691Z,28.57
2023-07-24T17:01:36.927Z,28.53
2023-07-24T17:04:05.382Z,28.44
2023-07-24T17:06:33.604Z,28.90
2023-07-24T17:09:01.659Z,29.00
2023-07-24T17:11:30.084Z,29.24
2023-07-24T17:13:59.518Z,29.39
2023-07-24T17:16:27.839Z,29.48
2023-07-24T17:18:57.469Z,29.74
2023-07-24T17:21:25.786Z,29.66
2023-07-24T17:23:53.993Z,29.94
2023-07-24T17:26:22.305Z,30.59
2023-07-24T17:28:50.606Z,30.75
2023-07-24T17:31:19.087Z,30.91
2023-07-24T17:33:47.184Z,30.98
2023-07-24T17:36:16.815Z,31.47
2023-07-24T17:38:45.088Z,31.73
2023-07-24T17:41:14.535Z,31.78
2023-07-24T17:43:42.551Z,31.74
2023-07-24T17:46:11.069Z,32.18
2023-07-24T17:48:39.065Z,32.34
2023-07-24T17:51:07.469Z,32.78
2023-07-24T17:53:37.016Z,33.10
2023-07-24T17:56:05.354Z,33.29
2023-07-24T17:58:33.450Z,33.33
2023-07-24T18:01:01.938Z,33.85
2023-07-24T18:03:30.139Z,33.26
2023-07-24T18:05:59.497Z,33.08
2023-07-24T18:08:28.897Z,32.95
2023-07-24T18:10:59.795Z,33.29
2023-07-24T18:13:27.919Z,33.81
2023-07-24T18:15:55.965Z,34.07
2023-07-24T18:18:24.178Z,34.09
2023-07-24T18:20:52.687Z,34.24
2023-07-24T18:23:20.849Z,34.57
2023-07-24T18:25:49.159Z,34.90
2023-07-24T18:28:18.504Z,34.70
2023-07-24T18:30:46.534Z,34.66
2023-07-24T18:33:16.064Z,35.31
2023-07-24T18:35:45.248Z,35.41
2023-07-24T18:38:13.555Z,36.01
2023-07-24T18:40:41.732Z,36.45
2023-07-24T18:43:10.002Z,36.37
2023-07-24T18:45:39.528Z,36.87
2023-07-24T18:48:09.572Z,36.88
2023-07-24T18:50:38.126Z,36.75
2023-07-24T18:53:06.818Z,37.28
2023-07-24T18:55:36.405Z,37.42
2023-07-24T18:58:04.392Z,37.64
2023-07-24T19:00:34.338Z,37.73
2023-07-24T19:03:04.813Z,38.00
2023-07-24T19:05:35.273Z,37.95
2023-07-24T19:08:03.657Z,38.67
2023-07-24T19:10:32.154Z,38.17
2023-07-24T19:13:00.650Z,38.14
2023-07-24T19:15:28.729Z,38.75
2023-07-24T19:17:57.274Z,38.75
2023-07-24T19:20:28.454Z,39.33
2023-07-24T19:22:57.971Z,39.50
2023-07-24T19:25:26.056Z,39.71
2023-07-24T19:27:54.409Z,39.89
2023-07-24T19:30:22.903Z,40.46
2023-07-24T19:32:51.329Z,40.68
2023-07-24T19:35:21.174Z,41.10
2023-07-24T19:37:50.642Z,41.57
2023-07-24T19:40:19.024Z,41.22
2023-07-24T19:42:47.771Z,41.29
2023-07-24T19:45:16.453Z,42.07
2023-07-24T19:47:44.675Z,42.04
2023-07-24T19:50:12.800Z,42.27
2023-07-24T19:52:41.217Z,42.12
2023-07-24T19:55:12.530Z,42.52
2023-07-24T19:57:40.700Z,43.09
2023-07-24T20:00:10.047Z,42.89
2023-07-24T20:02:38.433Z,42.77
2023-07-24T20:05:07.682Z,42.79
2023-07-24T20:07:36.310Z,43.23
2023-07-24T20:10:04.884Z,43.71
2023-07-24T20:12:34.809Z,44.37
2023-07-24T20:15:02.817Z,44.65
2023-07-24T20:17:32.473Z,45.24
2023-07-24T20:20:02.434Z,46.07
2023-07-24T20:22:30.716Z,46.34
2023-07-24T20:24:58.642Z,46.72
2023-07-24T20:27:27.297Z,47.42
2023-07-24T20:29:56.901Z,47.67
2023-07-24T20:32:25.378Z,48.22
2023-07-24T20:34:53.678Z,48.46
2023-07-24T20:37:21.789Z,49.11
2023-07-24T20:39:49.851Z,49.93
2023-07-24T20:42:17.919Z,51.10
2023-07-24T20:44:51.794Z,52.78
2023-07-24T20:47:21.929Z,53.52
2023-07-24T20:49:50.404Z,54.53
2023-07-24T20:52:19.384Z,55.13
2023-07-24T20:54:48.856Z,54.63
2023-07-24T20:57:17.148Z,55.17
2023-07-24T20:59:47.299Z,55.22
2023-07-24T21:02:15.977Z,58.00
2023-07-24T21:04:45.857Z,60.20
2023-07-24T21:07:15.062Z,59.41
2023-07-24T21:09:43.159Z,59.55
2023-07-24T21:12:11.225Z,59.71
2023-07-24T21:14:39.669Z,60.59
2023-07-24T21:17:08.013Z,61.50
2023-07-24T21:19:36.107Z,62.96
2023-07-24T21:22:06.697Z,66.66
2023-07-24T21:24:35.112Z,70.70
2023-07-24T21:27:03.558Z,72.46
2023-07-24T21:29:31.953Z,75.37
2023-07-24T21:32:00.071Z,78.56
2023-07-24T21:34:28.200Z,81.61
2023-07-24T21:36:56.613Z,83.83
2023-07-24T21:39:26.252Z,85.44
2023-07-24T21:41:54.255Z,86.65
2023-07-24T21:44:22.173Z,87.27
2023-07-24T21:46:50.521Z,89.22
2023-07-24T21:49:18.637Z,89.77
2023-07-24T21:51:47.407Z,90.62
2023-07-24T21:54:15.861Z,91.75
2023-07-24T21:56:45.300Z,92.84
2023-07-24T21:59:13.441Z,93.15
2023-07-24T22:01:41.568Z,91.54
2023-07-24T22:04:09.568Z,86.86
2023-07-24T22:06:37.522Z,89.68
2023-07-24T22:09:05.972Z,89.78
2023-07-24T22:11:36.935Z,90.99
2023-07-24T22:14:06.673Z,89.14
2023-07-24T22:16:36.541Z,86.31
2023-07-24T22:19:04.651Z,85.95
2023-07-24T22:21:34.277Z,84.90
2023-07-24T22:24:03.535Z,85.10
2023-07-24T22:26:32.515Z,84.47
2023-07-24T22:29:00.829Z,84.33
2023-07-24T22:31:30.425Z,84.90
2023-07-24T22:33:58.977Z,84.17
2023-07-24T22:36:27.093Z,83.74
2023-07-24T22:38:56.043Z,84.81
2023-07-24T22:41:24.562Z,88.42
2023-07-24T22:43:52.933Z,91.68
2023-07-24T22:46:21.387Z,93.41
2023-07-24T22:48:51.456Z,97.23
2023-07-24T22:51:19.937Z,98.51
2023-07-24T22:53:49.704Z,99.40
2023-07-24T22:56:17.832Z,97.91
2023-07-24T22:59:21.014Z,98.07
2023-07-24T23:01:50.333Z,100.00
2023-07-24T23:04:23.188Z,98.89
2023-07-24T23:06:54.354Z,97.86
2023-07-24T23:09:22.429Z,98.55
2023-07-24T23:11:50.638Z,97.04
2023-07-24T23:14:18.750Z,95.95
2023-07-24T23:16:48.358Z,93.36
2023-07-24T23:19:16.787Z,93.75
2023-07-24T23:21:46.409Z,95.42
2023-07-24T23:24:14.407Z,96.65
2023-07-24T23:26:42.467Z,97.42
2023-07-24T23:29:11.286Z,98.58
2023-07-24T23:31:39.351Z,98.28
2023-07-24T23:34:08.214Z,99.47
2023-07-24T23:36:36.513Z,99.26
2023-07-24T23:39:07.003Z,97.97
2023-07-24T23:41:35.178Z,97.17
2023-07-24T23:44:05.337Z,97.40
2023-07-24T23:46:34.750Z,98.54
2023-07-24T23:49:03.037Z,99.27
2023-07-24T23:51:32.170Z,98.96
2023-07-24T23:54:00.362Z,99.39
2023-07-24T23:56:29.754Z,98.07
2023-07-24T23:58:57.947Z,98.79
